sensor_id;sensor_type;location;lat;lon;timestamp;temperature;humidity
21047;DHT22;10682;50.874;3.656;2023-10-13T00:01:34;17.70;99.90
21047;DHT22;10682;50.874;3.656;2023-10-13T00:04:02;17.70;99.90
21047;DHT22;10682;50.874;3.656;2023-10-13T00:06:33;17.70;99.90
21047;DHT22;10682;50.874;3.656;2023-10-13T00:09:01;17.70;99.90
21047;DHT22;10682;50.874;3.656;2023-10-13T00:11:28;17.70;99.90
21047;DHT22;10682;50.874;3.656;2023-10-13T00:13:55;17.70;99.90
21047;DHT22;10682;50.874;3.656;2023-10-13T00:16:22;17.70;99.90
21047;DHT22;10682;50.874;3.656;2023-10-13T00:18:51;17.70;99.90
21047;DHT22;10682;50.874;3.656;2023-10-13T00:21:24;17.70;99.90
21047;DHT22;10682;50.874;3.656;2023-10-13T00:24:02;17.70;99.90
21047;DHT22;10682;50.874;3.656;2023-10-13T00:26:33;17.70;99.90
21047;DHT22;10682;50.874;3.656;2023-10-13T00:29:03;17.70;99.90
21047;DHT22;10682;50.874;3.656;2023-10-13T00:31:40;17.70;99.90
21047;DHT22;10682;50.874;3.656;2023-10-13T00:34:10;17.70;99.90
21047;DHT22;10682;50.874;3.656;2023-10-13T00:36:52;17.70;99.90
21047;DHT22;10682;50.874;3.656;2023-10-13T00:39:38;17.70;99.90
21047;DHT22;10682;50.874;3.656;2023-10-13T00:42:15;17.70;99.90
21047;DHT22;10682;50.874;3.656;2023-10-13T00:44:46;17.70;99.90
21047;DHT22;10682;50.874;3.656;2023-10-13T00:47:19;17.70;99.90
21047;DHT22;10682;50.874;3.656;2023-10-13T00:50:05;17.80;99.90
21047;DHT22;10682;50.874;3.656;2023-10-13T00:52:34;17.70;99.90
21047;DHT22;10682;50.874;3.656;2023-10-13T00:55:03;17.70;99.90
21047;DHT22;10682;50.874;3.656;2023-10-13T00:57:31;17.80;99.90
21047;DHT22;10682;50.874;3.656;2023-10-13T01:00:00;17.80;99.90
21047;DHT22;10682;50.874;3.656;2023-10-13T01:02:47;17.80;99.90
21047;DHT22;10682;50.874;3.656;2023-10-13T01:05:25;17.80;99.90
21047;DHT22;10682;50.874;3.656;2023-10-13T01:07:53;17.70;99.90
21047;DHT22;10682;50.874;3.656;2023-10-13T01:10:21;17.80;99.90
21047;DHT22;10682;50.874;3.656;2023-10-13T01:12:54;17.80;99.90
21047;DHT22;10682;50.874;3.656;2023-10-13T01:15:22;17.80;99.90
21047;DHT22;10682;50.874;3.656;2023-10-13T01:17:49;17.80;99.90
21047;DHT22;10682;50.874;3.656;2023-10-13T01:20:16;17.80;99.90
21047;DHT22;10682;50.874;3.656;2023-10-13T01:22:52;17.80;99.90
21047;DHT22;10682;50.874;3.656;2023-10-13T01:25:23;17.80;99.90
21047;DHT22;10682;50.874;3.656;2023-10-13T01:27:54;17.80;99.90
21047;DHT22;10682;50.874;3.656;2023-10-13T01:30:21;17.80;99.90
21047;DHT22;10682;50.874;3.656;2023-10-13T01:32:55;17.80;99.90
21047;DHT22;10682;50.874;3.656;2023-10-13T01:35:27;17.80;99.90
21047;DHT22;10682;50.874;3.656;2023-10-13T01:38:03;17.80;99.90
21047;DHT22;10682;50.874;3.656;2023-10-13T01:40:30;17.80;99.90
21047;DHT22;10682;50.874;3.656;2023-10-13T01:43:01;17.90;99.90
21047;DHT22;10682;50.874;3.656;2023-10-13T01:45:31;17.90;99.90
21047;DHT22;10682;50.874;3.656;2023-10-13T01:47:58;17.90;99.90
21047;DHT22;10682;50.874;3.656;2023-10-13T01:50:26;17.90;99.90
21047;DHT22;10682;50.874;3.656;2023-10-13T01:52:57;17.90;99.90
21047;DHT22;10682;50.874;3.656;2023-10-13T01:55:40;18.00;99.90
21047;DHT22;10682;50.874;3.656;2023-10-13T01:58:14;18.10;99.90
21047;DHT22;10682;50.874;3.656;2023-10-13T02:00:43;18.20;99.90
21047;DHT22;10682;50.874;3.656;2023-10-13T02:03:12;18.30;99.90
21047;DHT22;10682;50.874;3.656;2023-10-13T02:05:46;18.40;99.90
21047;DHT22;10682;50.874;3.656;2023-10-13T02:08:19;18.40;99.90
21047;DHT22;10682;50.874;3.656;2023-10-13T02:10:54;18.40;99.90
21047;DHT22;10682;50.874;3.656;2023-10-13T02:13:23;18.50;99.90
21047;DHT22;10682;50.874;3.656;2023-10-13T02:15:56;18.50;99.90
21047;DHT22;10682;50.874;3.656;2023-10-13T02:18:24;18.50;99.90
21047;DHT22;10682;50.874;3.656;2023-10-13T02:21:03;18.50;99.90
21047;DHT22;10682;50.874;3.656;2023-10-13T02:23:40;18.50;99.90
21047;DHT22;10682;50.874;3.656;2023-10-13T02:26:14;18.50;99.90
21047;DHT22;10682;50.874;3.656;2023-10-13T02:29:01;18.50;99.90
21047;DHT22;10682;50.874;3.656;2023-10-13T02:31:40;18.50;99.90
21047;DHT22;10682;50.874;3.656;2023-10-13T02:34:09;18.50;99.90
21047;DHT22;10682;50.874;3.656;2023-10-13T02:36:40;18.50;99.90
21047;DHT22;10682;50.874;3.656;2023-10-13T02:39:18;18.50;99.90
21047;DHT22;10682;50.874;3.656;2023-10-13T02:41:55;18.50;99.90
21047;DHT22;10682;50.874;3.656;2023-10-13T02:44:23;18.50;99.90
21047;DHT22;10682;50.874;3.656;2023-10-13T02:46:58;18.60;99.90
21047;DHT22;10682;50.874;3.656;2023-10-13T02:49:27;18.60;99.90
21047;DHT22;10682;50.874;3.656;2023-10-13T02:51:58;18.50;99.90
21047;DHT22;10682;50.874;3.656;2023-10-13T02:54:30;18.60;99.90
21047;DHT22;10682;50.874;3.656;2023-10-13T02:56:58;18.60;99.90
21047;DHT22;10682;50.874;3.656;2023-10-13T02:59:39;18.60;99.90
21047;DHT22;10682;50.874;3.656;2023-10-13T03:02:22;18.60;99.90
21047;DHT22;10682;50.874;3.656;2023-10-13T03:04:57;18.60;99.90
21047;DHT22;10682;50.874;3.656;2023-10-13T03:07:44;18.60;99.90
21047;DHT22;10682;50.874;3.656;2023-10-13T03:10:11;18.60;99.90
21047;DHT22;10682;50.874;3.656;2023-10-13T03:12:39;18.60;99.90
21047;DHT22;10682;50.874;3.656;2023-10-13T03:15:07;18.50;99.90
21047;DHT22;10682;50.874;3.656;2023-10-13T03:17:41;18.60;99.90
21047;DHT22;10682;50.874;3.656;2023-10-13T03:20:18;18.60;99.90
21047;DHT22;10682;50.874;3.656;2023-10-13T03:23:05;18.60;99.90
21047;DHT22;10682;50.874;3.656;2023-10-13T03:25:36;18.50;99.90
21047;DHT22;10682;50.874;3.656;2023-10-13T03:28:09;18.50;99.90
21047;DHT22;10682;50.874;3.656;2023-10-13T03:30:40;18.50;99.90
21047;DHT22;10682;50.874;3.656;2023-10-13T03:33:11;18.50;99.90
21047;DHT22;10682;50.874;3.656;2023-10-13T03:35:52;18.60;99.90
21047;DHT22;10682;50.874;3.656;2023-10-13T03:38:21;18.50;99.90
21047;DHT22;10682;50.874;3.656;2023-10-13T03:40:53;18.60;99.90
21047;DHT22;10682;50.874;3.656;2023-10-13T03:43:23;18.60;99.90
21047;DHT22;10682;50.874;3.656;2023-10-13T03:45:51;18.50;99.90
21047;DHT22;10682;50.874;3.656;2023-10-13T03:48:36;18.50;99.90
21047;DHT22;10682;50.874;3.656;2023-10-13T03:51:28;18.50;99.90
21047;DHT22;10682;50.874;3.656;2023-10-13T03:53:58;18.50;99.90
21047;DHT22;10682;50.874;3.656;2023-10-13T03:56:27;18.50;99.90
21047;DHT22;10682;50.874;3.656;2023-10-13T03:59:06;18.50;99.90
21047;DHT22;10682;50.874;3.656;2023-10-13T04:01:36;18.50;99.90
21047;DHT22;10682;50.874;3.656;2023-10-13T04:04:14;18.40;99.90
21047;DHT22;10682;50.874;3.656;2023-10-13T04:06:42;18.40;99.90
21047;DHT22;10682;50.874;3.656;2023-10-13T04:09:16;18.40;99.90
21047;DHT22;10682;50.874;3.656;2023-10-13T04:12:01;18.40;99.90
21047;DHT22;10682;50.874;3.656;2023-10-13T04:14:33;18.30;99.90
21047;DHT22;10682;50.874;3.656;2023-10-13T04:17:20;18.30;99.90
21047;DHT22;10682;50.874;3.656;2023-10-13T04:19:57;18.30;99.90
21047;DHT22;10682;50.874;3.656;2023-10-13T04:22:39;18.30;99.90
21047;DHT22;10682;50.874;3.656;2023-10-13T04:25:16;18.30;99.90
21047;DHT22;10682;50.874;3.656;2023-10-13T04:28:13;18.30;99.90
21047;DHT22;10682;50.874;3.656;2023-10-13T04:30:50;18.30;99.90
21047;DHT22;10682;50.874;3.656;2023-10-13T04:33:32;18.30;99.90
21047;DHT22;10682;50.874;3.656;2023-10-13T04:36:08;18.30;99.90
21047;DHT22;10682;50.874;3.656;2023-10-13T04:38:59;18.30;99.90
21047;DHT22;10682;50.874;3.656;2023-10-13T04:41:36;18.30;99.90
21047;DHT22;10682;50.874;3.656;2023-10-13T04:44:26;18.30;99.90
21047;DHT22;10682;50.874;3.656;2023-10-13T04:46:58;18.40;99.90
21047;DHT22;10682;50.874;3.656;2023-10-13T04:49:30;18.40;99.90
21047;DHT22;10682;50.874;3.656;2023-10-13T04:52:04;18.30;99.90
21047;DHT22;10682;50.874;3.656;2023-10-13T04:54:40;18.30;99.90
21047;DHT22;10682;50.874;3.656;2023-10-13T04:57:24;18.40;99.90
21047;DHT22;10682;50.874;3.656;2023-10-13T05:00:10;18.30;99.90
21047;DHT22;10682;50.874;3.656;2023-10-13T05:02:47;18.40;99.90
21047;DHT22;10682;50.874;3.656;2023-10-13T05:05:17;18.40;99.90
21047;DHT22;10682;50.874;3.656;2023-10-13T05:07:52;18.40;99.90
21047;DHT22;10682;50.874;3.656;2023-10-13T05:10:38;18.40;99.90
21047;DHT22;10682;50.874;3.656;2023-10-13T05:13:24;18.40;99.90
21047;DHT22;10682;50.874;3.656;2023-10-13T05:16:10;18.50;99.90
21047;DHT22;10682;50.874;3.656;2023-10-13T05:18:55;18.50;99.90
21047;DHT22;10682;50.874;3.656;2023-10-13T05:21:41;18.50;99.90
21047;DHT22;10682;50.874;3.656;2023-10-13T05:24:29;18.50;99.90
21047;DHT22;10682;50.874;3.656;2023-10-13T05:27:14;18.50;99.90
21047;DHT22;10682;50.874;3.656;2023-10-13T05:30:00;18.60;99.90
21047;DHT22;10682;50.874;3.656;2023-10-13T05:32:45;18.60;99.90
21047;DHT22;10682;50.874;3.656;2023-10-13T05:35:31;18.60;99.90
21047;DHT22;10682;50.874;3.656;2023-10-13T05:38:17;18.60;99.90
21047;DHT22;10682;50.874;3.656;2023-10-13T05:41:04;18.60;99.90
21047;DHT22;10682;50.874;3.656;2023-10-13T05:43:53;18.60;99.90
21047;DHT22;10682;50.874;3.656;2023-10-13T05:46:38;18.70;99.90
21047;DHT22;10682;50.874;3.656;2023-10-13T05:49:07;18.70;99.90
21047;DHT22;10682;50.874;3.656;2023-10-13T05:51:44;18.70;99.90
21047;DHT22;10682;50.874;3.656;2023-10-13T05:54:25;18.80;99.90
21047;DHT22;10682;50.874;3.656;2023-10-13T05:57:10;18.80;99.90
21047;DHT22;10682;50.874;3.656;2023-10-13T06:00:07;18.80;99.90
21047;DHT22;10682;50.874;3.656;2023-10-13T06:02:52;18.80;99.90
21047;DHT22;10682;50.874;3.656;2023-10-13T06:05:38;18.80;99.90
21047;DHT22;10682;50.874;3.656;2023-10-13T06:08:24;18.80;99.90
21047;DHT22;10682;50.874;3.656;2023-10-13T06:11:10;18.80;99.90
21047;DHT22;10682;50.874;3.656;2023-10-13T06:13:55;18.80;99.90
21047;DHT22;10682;50.874;3.656;2023-10-13T06:16:40;18.90;99.90
21047;DHT22;10682;50.874;3.656;2023-10-13T06:19:26;18.90;99.90
21047;DHT22;10682;50.874;3.656;2023-10-13T06:22:11;18.90;99.90
21047;DHT22;10682;50.874;3.656;2023-10-13T06:24:57;19.00;99.90
21047;DHT22;10682;50.874;3.656;2023-10-13T06:27:42;19.00;99.90
21047;DHT22;10682;50.874;3.656;2023-10-13T06:30:28;19.00;99.90
21047;DHT22;10682;50.874;3.656;2023-10-13T06:32:55;19.00;99.90
21047;DHT22;10682;50.874;3.656;2023-10-13T06:35:22;19.00;99.90
21047;DHT22;10682;50.874;3.656;2023-10-13T06:37:51;19.10;99.90
21047;DHT22;10682;50.874;3.656;2023-10-13T06:40:18;19.10;99.90
21047;DHT22;10682;50.874;3.656;2023-10-13T06:42:54;19.10;99.90
21047;DHT22;10682;50.874;3.656;2023-10-13T06:45:39;19.10;99.90
21047;DHT22;10682;50.874;3.656;2023-10-13T06:48:06;19.10;99.90
21047;DHT22;10682;50.874;3.656;2023-10-13T06:50:38;19.10;99.90
21047;DHT22;10682;50.874;3.656;2023-10-13T06:53:10;19.10;99.90
21047;DHT22;10682;50.874;3.656;2023-10-13T06:55:39;19.10;99.90
21047;DHT22;10682;50.874;3.656;2023-10-13T06:58:07;19.20;99.90
21047;DHT22;10682;50.874;3.656;2023-10-13T07:00:40;19.20;99.90
21047;DHT22;10682;50.874;3.656;2023-10-13T07:03:08;19.20;99.90
21047;DHT22;10682;50.874;3.656;2023-10-13T07:05:45;19.20;99.90
21047;DHT22;10682;50.874;3.656;2023-10-13T07:08:15;19.20;99.90
21047;DHT22;10682;50.874;3.656;2023-10-13T07:10:56;19.20;99.90
21047;DHT22;10682;50.874;3.656;2023-10-13T07:13:45;19.20;99.90
21047;DHT22;10682;50.874;3.656;2023-10-13T07:16:17;19.30;99.90
21047;DHT22;10682;50.874;3.656;2023-10-13T07:18:56;19.30;99.90
21047;DHT22;10682;50.874;3.656;2023-10-13T07:21:31;19.30;99.90
21047;DHT22;10682;50.874;3.656;2023-10-13T07:24:00;19.40;99.90
21047;DHT22;10682;50.874;3.656;2023-10-13T07:26:35;19.40;99.90
21047;DHT22;10682;50.874;3.656;2023-10-13T07:29:25;19.50;99.90
21047;DHT22;10682;50.874;3.656;2023-10-13T07:31:52;19.50;99.90
21047;DHT22;10682;50.874;3.656;2023-10-13T07:34:19;19.50;99.90
21047;DHT22;10682;50.874;3.656;2023-10-13T07:36:59;19.50;99.90
21047;DHT22;10682;50.874;3.656;2023-10-13T07:39:31;19.60;99.90
21047;DHT22;10682;50.874;3.656;2023-10-13T07:42:01;19.60;99.90
21047;DHT22;10682;50.874;3.656;2023-10-13T07:44:46;19.60;99.90
21047;DHT22;10682;50.874;3.656;2023-10-13T07:47:15;19.60;99.90
21047;DHT22;10682;50.874;3.656;2023-10-13T07:49:47;19.70;99.90
21047;DHT22;10682;50.874;3.656;2023-10-13T07:52:17;19.70;99.90
21047;DHT22;10682;50.874;3.656;2023-10-13T07:54:51;19.70;99.90
21047;DHT22;10682;50.874;3.656;2023-10-13T07:57:38;19.80;99.90
21047;DHT22;10682;50.874;3.656;2023-10-13T08:00:24;19.80;99.90
21047;DHT22;10682;50.874;3.656;2023-10-13T08:03:10;19.90;99.90
21047;DHT22;10682;50.874;3.656;2023-10-13T08:05:44;19.90;99.90
21047;DHT22;10682;50.874;3.656;2023-10-13T08:08:34;19.80;99.90
21047;DHT22;10682;50.874;3.656;2023-10-13T08:13:58;19.90;99.90
21047;DHT22;10682;50.874;3.656;2023-10-13T08:16:41;19.80;99.90
21047;DHT22;10682;50.874;3.656;2023-10-13T08:19:19;19.80;99.90
21047;DHT22;10682;50.874;3.656;2023-10-13T08:21:48;19.80;99.90
21047;DHT22;10682;50.874;3.656;2023-10-13T08:24:38;19.70;99.90
21047;DHT22;10682;50.874;3.656;2023-10-13T08:27:06;19.70;99.90
21047;DHT22;10682;50.874;3.656;2023-10-13T08:29:53;19.70;99.90
21047;DHT22;10682;50.874;3.656;2023-10-13T08:32:23;19.70;99.90
21047;DHT22;10682;50.874;3.656;2023-10-13T08:34:56;19.70;99.90
21047;DHT22;10682;50.874;3.656;2023-10-13T08:37:29;19.80;99.90
21047;DHT22;10682;50.874;3.656;2023-10-13T08:40:00;19.80;99.90
21047;DHT22;10682;50.874;3.656;2023-10-13T08:42:51;19.90;99.90
21047;DHT22;10682;50.874;3.656;2023-10-13T08:45:43;19.90;99.90
21047;DHT22;10682;50.874;3.656;2023-10-13T08:48:11;19.90;99.90
21047;DHT22;10682;50.874;3.656;2023-10-13T08:50:50;19.90;99.90
21047;DHT22;10682;50.874;3.656;2023-10-13T08:56:04;20.00;99.90
21047;DHT22;10682;50.874;3.656;2023-10-13T08:58:47;20.00;99.90
21047;DHT22;10682;50.874;3.656;2023-10-13T09:01:47;20.00;99.90
21047;DHT22;10682;50.874;3.656;2023-10-13T09:04:26;20.00;99.90
21047;DHT22;10682;50.874;3.656;2023-10-13T09:07:01;20.00;99.90
21047;DHT22;10682;50.874;3.656;2023-10-13T09:12:30;20.10;99.90
21047;DHT22;10682;50.874;3.656;2023-10-13T09:15:08;20.10;99.90
21047;DHT22;10682;50.874;3.656;2023-10-13T09:17:46;20.10;99.90
21047;DHT22;10682;50.874;3.656;2023-10-13T09:20:37;20.10;99.90
21047;DHT22;10682;50.874;3.656;2023-10-13T09:23:14;20.10;99.90
21047;DHT22;10682;50.874;3.656;2023-10-13T09:25:52;20.10;99.90
21047;DHT22;10682;50.874;3.656;2023-10-13T09:28:28;20.00;99.90
21047;DHT22;10682;50.874;3.656;2023-10-13T09:30:58;20.10;99.90
21047;DHT22;10682;50.874;3.656;2023-10-13T09:33:30;20.00;99.90
21047;DHT22;10682;50.874;3.656;2023-10-13T09:36:03;20.10;99.90
21047;DHT22;10682;50.874;3.656;2023-10-13T09:38:40;20.10;99.90
21047;DHT22;10682;50.874;3.656;2023-10-13T09:41:07;20.10;99.90
21047;DHT22;10682;50.874;3.656;2023-10-13T09:43:53;20.10;99.90
21047;DHT22;10682;50.874;3.656;2023-10-13T09:46:26;20.10;99.90
21047;DHT22;10682;50.874;3.656;2023-10-13T09:49:12;20.10;99.90
21047;DHT22;10682;50.874;3.656;2023-10-13T09:52:01;20.10;99.90
21047;DHT22;10682;50.874;3.656;2023-10-13T09:54:38;20.20;99.90
21047;DHT22;10682;50.874;3.656;2023-10-13T09:57:16;20.30;99.90
21047;DHT22;10682;50.874;3.656;2023-10-13T09:59:52;20.40;99.90
21047;DHT22;10682;50.874;3.656;2023-10-13T10:02:23;20.40;99.90
21047;DHT22;10682;50.874;3.656;2023-10-13T10:04:54;20.50;99.90
21047;DHT22;10682;50.874;3.656;2023-10-13T10:07:39;20.60;99.90
21047;DHT22;10682;50.874;3.656;2023-10-13T10:10:11;20.60;99.90
21047;DHT22;10682;50.874;3.656;2023-10-13T10:13:13;20.60;99.90
21047;DHT22;10682;50.874;3.656;2023-10-13T10:15:47;20.70;99.90
21047;DHT22;10682;50.874;3.656;2023-10-13T10:18:23;20.70;99.90
21047;DHT22;10682;50.874;3.656;2023-10-13T10:21:04;20.60;99.90
21047;DHT22;10682;50.874;3.656;2023-10-13T10:23:36;20.60;99.90
21047;DHT22;10682;50.874;3.656;2023-10-13T10:28:39;20.70;99.90
21047;DHT22;10682;50.874;3.656;2023-10-13T10:31:12;20.80;99.90
21047;DHT22;10682;50.874;3.656;2023-10-13T10:33:43;20.90;99.90
21047;DHT22;10682;50.874;3.656;2023-10-13T10:36:11;21.00;99.90
21047;DHT22;10682;50.874;3.656;2023-10-13T10:38:58;21.00;99.90
21047;DHT22;10682;50.874;3.656;2023-10-13T10:41:32;21.10;99.90
21047;DHT22;10682;50.874;3.656;2023-10-13T10:44:18;21.10;99.90
21047;DHT22;10682;50.874;3.656;2023-10-13T10:47:12;21.10;99.90
21047;DHT22;10682;50.874;3.656;2023-10-13T10:49:59;21.20;99.90
21047;DHT22;10682;50.874;3.656;2023-10-13T10:52:34;21.30;99.90
21047;DHT22;10682;50.874;3.656;2023-10-13T10:55:06;21.30;99.90
21047;DHT22;10682;50.874;3.656;2023-10-13T10:57:40;21.40;99.90
21047;DHT22;10682;50.874;3.656;2023-10-13T11:00:20;21.50;99.90
21047;DHT22;10682;50.874;3.656;2023-10-13T11:02:55;21.50;99.90
21047;DHT22;10682;50.874;3.656;2023-10-13T11:05:23;21.50;99.90
21047;DHT22;10682;50.874;3.656;2023-10-13T11:07:59;21.60;99.90
21047;DHT22;10682;50.874;3.656;2023-10-13T11:10:31;21.60;99.90
21047;DHT22;10682;50.874;3.656;2023-10-13T11:13:00;21.60;99.90
21047;DHT22;10682;50.874;3.656;2023-10-13T11:15:44;21.70;99.90
21047;DHT22;10682;50.874;3.656;2023-10-13T11:18:14;21.80;99.90
21047;DHT22;10682;50.874;3.656;2023-10-13T11:20:48;21.80;99.90
21047;DHT22;10682;50.874;3.656;2023-10-13T11:23:22;21.90;99.90
21047;DHT22;10682;50.874;3.656;2023-10-13T11:25:59;22.00;99.90
21047;DHT22;10682;50.874;3.656;2023-10-13T11:28:30;22.00;99.90
21047;DHT22;10682;50.874;3.656;2023-10-13T11:31:01;22.00;99.90
21047;DHT22;10682;50.874;3.656;2023-10-13T11:33:46;22.00;99.90
21047;DHT22;10682;50.874;3.656;2023-10-13T11:36:23;22.10;99.90
21047;DHT22;10682;50.874;3.656;2023-10-13T11:38:59;22.30;99.90
21047;DHT22;10682;50.874;3.656;2023-10-13T11:41:27;22.40;99.90
21047;DHT22;10682;50.874;3.656;2023-10-13T11:44:03;22.40;99.90
21047;DHT22;10682;50.874;3.656;2023-10-13T11:46:33;22.50;99.90
21047;DHT22;10682;50.874;3.656;2023-10-13T11:49:10;22.50;99.90
21047;DHT22;10682;50.874;3.656;2023-10-13T11:51:48;22.40;99.90
21047;DHT22;10682;50.874;3.656;2023-10-13T11:54:22;22.40;99.90
21047;DHT22;10682;50.874;3.656;2023-10-13T11:56:56;22.30;99.90
21047;DHT22;10682;50.874;3.656;2023-10-13T11:59:26;22.30;99.90
21047;DHT22;10682;50.874;3.656;2023-10-13T12:01:57;22.20;99.90
21047;DHT22;10682;50.874;3.656;2023-10-13T12:04:48;22.20;99.90
21047;DHT22;10682;50.874;3.656;2023-10-13T12:07:18;22.10;99.90
21047;DHT22;10682;50.874;3.656;2023-10-13T12:10:04;22.20;99.90
21047;DHT22;10682;50.874;3.656;2023-10-13T12:12:33;22.20;99.90
21047;DHT22;10682;50.874;3.656;2023-10-13T12:15:09;22.30;99.90
21047;DHT22;10682;50.874;3.656;2023-10-13T12:17:36;22.30;99.90
21047;DHT22;10682;50.874;3.656;2023-10-13T12:20:07;22.40;99.90
21047;DHT22;10682;50.874;3.656;2023-10-13T12:22:39;22.40;99.90
21047;DHT22;10682;50.874;3.656;2023-10-13T12:25:13;22.50;99.90
21047;DHT22;10682;50.874;3.656;2023-10-13T12:27:56;22.50;99.90
21047;DHT22;10682;50.874;3.656;2023-10-13T12:30:31;22.60;99.90
21047;DHT22;10682;50.874;3.656;2023-10-13T12:33:23;22.70;99.90
21047;DHT22;10682;50.874;3.656;2023-10-13T12:36:01;22.90;99.90
21047;DHT22;10682;50.874;3.656;2023-10-13T12:38:37;22.90;99.90
21047;DHT22;10682;50.874;3.656;2023-10-13T12:41:23;22.90;99.90
21047;DHT22;10682;50.874;3.656;2023-10-13T12:44:28;22.80;99.90
21047;DHT22;10682;50.874;3.656;2023-10-13T12:47:19;22.80;99.90
21047;DHT22;10682;50.874;3.656;2023-10-13T12:50:07;22.70;99.90
21047;DHT22;10682;50.874;3.656;2023-10-13T12:52:40;22.50;99.90
21047;DHT22;10682;50.874;3.656;2023-10-13T12:55:12;22.50;99.90
21047;DHT22;10682;50.874;3.656;2023-10-13T12:57:44;22.50;99.90
21047;DHT22;10682;50.874;3.656;2023-10-13T13:00:12;22.60;99.90
21047;DHT22;10682;50.874;3.656;2023-10-13T13:02:55;22.60;99.90
21047;DHT22;10682;50.874;3.656;2023-10-13T13:05:24;22.70;99.90
21047;DHT22;10682;50.874;3.656;2023-10-13T13:08:02;22.80;99.90
21047;DHT22;10682;50.874;3.656;2023-10-13T13:10:29;22.80;99.90
21047;DHT22;10682;50.874;3.656;2023-10-13T13:13:04;22.70;99.90
21047;DHT22;10682;50.874;3.656;2023-10-13T13:15:32;22.70;99.90
21047;DHT22;10682;50.874;3.656;2023-10-13T13:18:19;22.70;99.90
21047;DHT22;10682;50.874;3.656;2023-10-13T13:20:53;22.70;99.90
21047;DHT22;10682;50.874;3.656;2023-10-13T13:23:26;22.70;99.90
21047;DHT22;10682;50.874;3.656;2023-10-13T13:25:54;22.70;99.90
21047;DHT22;10682;50.874;3.656;2023-10-13T13:28:24;22.70;99.90
21047;DHT22;10682;50.874;3.656;2023-10-13T13:30:59;22.70;99.90
21047;DHT22;10682;50.874;3.656;2023-10-13T13:33:28;22.70;99.90
21047;DHT22;10682;50.874;3.656;2023-10-13T13:36:00;22.70;99.90
21047;DHT22;10682;50.874;3.656;2023-10-13T13:38:29;22.70;99.90
21047;DHT22;10682;50.874;3.656;2023-10-13T13:41:02;22.70;99.90
21047;DHT22;10682;50.874;3.656;2023-10-13T13:43:49;22.70;99.90
21047;DHT22;10682;50.874;3.656;2023-10-13T13:46:19;22.70;99.90
21047;DHT22;10682;50.874;3.656;2023-10-13T13:48:52;22.70;99.90
21047;DHT22;10682;50.874;3.656;2023-10-13T13:51:29;22.60;99.90
21047;DHT22;10682;50.874;3.656;2023-10-13T13:53:59;22.50;99.90
21047;DHT22;10682;50.874;3.656;2023-10-13T13:56:32;22.50;99.90
21047;DHT22;10682;50.874;3.656;2023-10-13T13:59:05;22.50;99.90
21047;DHT22;10682;50.874;3.656;2023-10-13T14:01:36;22.50;99.90
21047;DHT22;10682;50.874;3.656;2023-10-13T14:04:07;22.50;99.90
21047;DHT22;10682;50.874;3.656;2023-10-13T14:06:38;22.50;99.90
21047;DHT22;10682;50.874;3.656;2023-10-13T14:09:06;22.50;99.90
21047;DHT22;10682;50.874;3.656;2023-10-13T14:11:57;22.50;99.90
21047;DHT22;10682;50.874;3.656;2023-10-13T14:14:56;22.40;99.90
21047;DHT22;10682;50.874;3.656;2023-10-13T14:17:26;22.50;99.90
21047;DHT22;10682;50.874;3.656;2023-10-13T14:20:00;22.40;99.90
21047;DHT22;10682;50.874;3.656;2023-10-13T14:22:36;22.40;99.90
21047;DHT22;10682;50.874;3.656;2023-10-13T14:25:04;22.30;99.90
21047;DHT22;10682;50.874;3.656;2023-10-13T14:27:35;22.30;99.90
21047;DHT22;10682;50.874;3.656;2023-10-13T14:30:03;22.30;99.90
21047;DHT22;10682;50.874;3.656;2023-10-13T14:32:30;22.20;99.90
21047;DHT22;10682;50.874;3.656;2023-10-13T14:35:01;22.30;99.90
21047;DHT22;10682;50.874;3.656;2023-10-13T14:37:42;22.20;99.90
21047;DHT22;10682;50.874;3.656;2023-10-13T14:40:10;22.30;99.90
21047;DHT22;10682;50.874;3.656;2023-10-13T14:42:42;22.30;99.90
21047;DHT22;10682;50.874;3.656;2023-10-13T14:45:12;22.30;99.90
21047;DHT22;10682;50.874;3.656;2023-10-13T14:47:49;22.30;99.90
21047;DHT22;10682;50.874;3.656;2023-10-13T14:50:19;22.30;99.90
21047;DHT22;10682;50.874;3.656;2023-10-13T14:52:48;22.40;99.90
21047;DHT22;10682;50.874;3.656;2023-10-13T14:55:17;22.40;99.90
21047;DHT22;10682;50.874;3.656;2023-10-13T14:57:50;22.40;99.90
21047;DHT22;10682;50.874;3.656;2023-10-13T15:00:21;22.40;99.90
21047;DHT22;10682;50.874;3.656;2023-10-13T15:02:54;22.40;99.90
21047;DHT22;10682;50.874;3.656;2023-10-13T15:05:22;22.40;99.90
21047;DHT22;10682;50.874;3.656;2023-10-13T15:07:52;22.40;99.90
21047;DHT22;10682;50.874;3.656;2023-10-13T15:10:28;22.40;99.90
21047;DHT22;10682;50.874;3.656;2023-10-13T15:13:06;22.40;99.90
21047;DHT22;10682;50.874;3.656;2023-10-13T15:15:34;22.40;99.90
21047;DHT22;10682;50.874;3.656;2023-10-13T15:18:02;22.50;99.90
21047;DHT22;10682;50.874;3.656;2023-10-13T15:20:51;22.40;99.90
21047;DHT22;10682;50.874;3.656;2023-10-13T15:23:27;22.30;99.90
21047;DHT22;10682;50.874;3.656;2023-10-13T15:26:03;22.30;99.90
21047;DHT22;10682;50.874;3.656;2023-10-13T15:28:44;22.30;99.90
21047;DHT22;10682;50.874;3.656;2023-10-13T15:31:27;22.20;99.90
21047;DHT22;10682;50.874;3.656;2023-10-13T15:34:05;22.20;99.90
21047;DHT22;10682;50.874;3.656;2023-10-13T15:36:48;22.10;99.90
21047;DHT22;10682;50.874;3.656;2023-10-13T15:39:58;22.10;99.90
21047;DHT22;10682;50.874;3.656;2023-10-13T15:42:35;22.00;99.90
21047;DHT22;10682;50.874;3.656;2023-10-13T15:45:08;22.00;99.90
21047;DHT22;10682;50.874;3.656;2023-10-13T15:47:45;22.00;99.90
21047;DHT22;10682;50.874;3.656;2023-10-13T15:50:39;22.00;99.90
21047;DHT22;10682;50.874;3.656;2023-10-13T15:53:08;22.00;99.90
21047;DHT22;10682;50.874;3.656;2023-10-13T15:55:40;21.90;99.90
21047;DHT22;10682;50.874;3.656;2023-10-13T15:58:07;21.70;99.90
21047;DHT22;10682;50.874;3.656;2023-10-13T16:00:37;21.50;99.90
21047;DHT22;10682;50.874;3.656;2023-10-13T16:03:05;21.40;99.90
21047;DHT22;10682;50.874;3.656;2023-10-13T16:05:39;21.00;99.90
21047;DHT22;10682;50.874;3.656;2023-10-13T16:08:10;20.80;99.90
21047;DHT22;10682;50.874;3.656;2023-10-13T16:10:40;20.60;99.90
21047;DHT22;10682;50.874;3.656;2023-10-13T16:13:08;20.40;99.90
21047;DHT22;10682;50.874;3.656;2023-10-13T16:15:43;20.30;99.90
21047;DHT22;10682;50.874;3.656;2023-10-13T16:18:13;20.20;99.90
21047;DHT22;10682;50.874;3.656;2023-10-13T16:20:40;20.20;99.90
21047;DHT22;10682;50.874;3.656;2023-10-13T16:23:07;20.20;99.90
21047;DHT22;10682;50.874;3.656;2023-10-13T16:25:44;20.30;99.90
21047;DHT22;10682;50.874;3.656;2023-10-13T16:28:11;20.30;99.90
21047;DHT22;10682;50.874;3.656;2023-10-13T16:30:41;20.40;99.90
21047;DHT22;10682;50.874;3.656;2023-10-13T16:33:08;20.50;99.90
21047;DHT22;10682;50.874;3.656;2023-10-13T16:35:35;20.50;99.90